Peach Bottom, Pennsylvania
Current Conditions -  °F | °C
As of 11:15 AM on Sunday 25 Jan 2015 (Local Time) from KMQS Reporting Station
Broken Clouds Broken Clouds  
Wind Chill: 35°   Ceiling: 6000
Heat Index: 41°   Visibility: 10mi
Dew Point: 32°   Wind: 9mph
Humidity: 70%   Direction: 270°W
Pressure: 29.82"   Gusts: 17mph
Location:  39.75°N, 76.23°W
Report Text: KMQS 251615Z AUTO 27008G15KT 230V300 10SM FEW033 SCT044 BKN060 05/00 A2982 RMK AO2
Loading
Personal Weather Stations






























Interactive Weather Map New forecast layout! Learn more

10-Day Weather Forecast

Advertisements
Track Severe Weather on mobile